Time,TemperatureF,DewpointF,PressureIn,WindDirection,WindDirectionDegrees,WindSpeedMPH,WindSpeedGustMPH,Humidity,HourlyPrecipIn,Conditions,Clouds,dailyrainin,SoftwareType,DateUTC
2013-03-10 00:27:00,59.2,45.9,29.80,NW,315,0.0,0.0,61,0.00,,SCT,0.00,WUHU21623XXSP,2013-03-09 22:27:00,
2013-03-10 01:27:00,56.1,44.6,29.78,NNE,23,0.0,0.0,65,0.00,,SCT,0.00,WUHU21623XXSP,2013-03-09 23:27:00,
2013-03-10 02:27:00,54.7,45.2,29.79,ESE,113,0.0,0.0,70,0.00,,SCT,0.00,WUHU21623XXSP,2013-03-10 00:27:00,
2013-03-10 03:27:00,55.6,46.1,29.79,West,270,0.0,0.0,70,0.00,,SCT,0.00,WUHU21623XXSP,2013-03-10 01:27:00,
2013-03-10 04:27:00,56.3,47.1,29.79,SW,225,0.0,0.0,71,0.00,,SCT,0.00,WUHU21623XXSP,2013-03-10 02:27:00,
2013-03-10 05:27:00,56.7,46.4,29.78,SSE,158,0.0,0.0,68,0.00,,SCT,0.00,WUHU21623XXSP,2013-03-10 03:27:00,
2013-03-10 06:27:00,55.8,45.9,29.79,NE,45,0.0,0.0,69,0.00,,SCT,0.00,WUHU21623XXSP,2013-03-10 04:27:00,
2013-03-10 07:27:00,54.3,45.9,29.80,NE,45,0.0,0.0,73,0.00,,SCT,0.00,WUHU21623XXSP,2013-03-10 05:27:00,
2013-03-10 08:36:00,58.6,45.8,29.81,WSW,247,0.0,0.0,62,0.00,,SCT,0.00,WUHU21623XXSP,2013-03-10 06:36:00,
2013-03-10 08:41:00,58.8,49.5,29.81,SW,225,4.7,5.4,71,0.00,,SCT,0.00,WUHU21623XXSP,2013-03-10 06:41:00,
2013-03-10 08:46:00,59.2,49.9,29.81,SSW,202,6.6,7.4,71,0.00,,SCT,0.00,WUHU21623XXSP,2013-03-10 06:46:00,
2013-03-10 08:51:00,59.2,49.9,29.81,SW,225,9.8,9.8,71,0.00,,SCT,0.00,WUHU21623XXSP,2013-03-10 06:51:00,
2013-03-10 08:56:00,59.2,49.6,29.81,SW,225,2.8,9.8,70,0.00,,SCT,0.00,WUHU21623XXSP,2013-03-10 06:56:00,
2013-03-10 09:01:00,59.7,50.0,29.81,NW,315,0.0,6.4,70,0.00,,SCT,0.00,WUHU21623XXSP,2013-03-10 07:01:00,
2013-03-10 09:06:00,59.9,49.5,29.81,WSW,247,0.0,5.6,68,0.00,,SCT,0.00,WUHU21623XXSP,2013-03-10 07:06:00,
2013-03-10 09:11:00,60.4,49.5,29.82,SSW,202,0.0,2.0,67,0.00,,SCT,0.00,WUHU21623XXSP,2013-03-10 07:11:00,
2013-03-10 09:16:00,60.4,49.1,29.81,SSW,202,2.8,4.2,66,0.00,,SCT,0.00,WUHU21623XXSP,2013-03-10 07:16:00,
2013-03-10 09:21:00,60.4,48.7,29.81,SSW,202,2.4,5.6,65,0.00,,SCT,0.00,WUHU21623XXSP,2013-03-10 07:21:00,
2013-03-10 09:26:00,60.4,47.9,29.81,NNE,22,0.0,7.2,63,0.00,,SCT,0.00,WUHU21623XXSP,2013-03-10 07:26:00,
2013-03-10 09:31:00,60.8,47.8,29.82,SSW,202,7.2,8.9,62,0.00,,SCT,0.00,WUHU21623XXSP,2013-03-10 07:31:00,
2013-03-10 09:36:00,61.3,48.7,29.83,WSW,247,0.0,8.9,63,0.00,,SCT,0.00,WUHU21623XXSP,2013-03-10 07:36:00,
2013-03-10 09:41:00,61.7,48.7,29.83,SW,225,0.0,7.6,62,0.00,,SCT,0.00,WUHU21623XXSP,2013-03-10 07:41:00,
2013-03-10 09:46:00,61.7,48.3,29.82,SW,225,0.0,2.2,61,0.00,,SCT,0.00,WUHU21623XXSP,2013-03-10 07:46:00,
2013-03-10 09:51:00,61.9,48.0,29.83,SW,225,0.0,3.0,60,0.00,,SCT,0.00,WUHU21623XXSP,2013-03-10 07:51:00,
2013-03-10 09:56:00,62.2,46.9,29.82,NW,315,0.0,4.9,57,0.00,,SCT,0.00,WUHU21623XXSP,2013-03-10 07:56:00,
2013-03-10 10:01:00,62.4,46.6,29.82,WSW,247,0.0,5.2,56,0.00,,SCT,0.00,WUHU21623XXSP,2013-03-10 08:01:00,
2013-03-10 10:06:00,62.8,47.0,29.82,SW,225,1.8,6.6,56,0.00,,SCT,0.00,WUHU21623XXSP,2013-03-10 08:06:00,
2013-03-10 10:11:00,63.0,46.7,29.82,South,180,0.0,6.6,55,0.00,,SCT,0.00,WUHU21623XXSP,2013-03-10 08:11:00,
2013-03-10 10:16:00,63.1,46.3,29.81,WSW,247,3.2,11.1,54,0.00,,SCT,0.00,WUHU21623XXSP,2013-03-10 08:16:00,
2013-03-10 10:21:00,63.3,47.4,29.82,West,270,0.0,11.1,56,0.00,,SCT,0.00,WUHU21623XXSP,2013-03-10 08:21:00,
2013-03-10 10:26:00,63.5,47.1,29.82,NNW,337,0.0,4.0,55,0.00,,SCT,0.00,WUHU21623XXSP,2013-03-10 08:26:00,
2013-03-10 10:31:00,63.5,47.1,29.82,SSW,202,2.4,8.4,55,0.00,,SCT,0.00,WUHU21623XXSP,2013-03-10 08:31:00,
2013-03-10 10:36:00,63.7,48.3,29.82,North,0,0.0,8.4,57,0.00,,SCT,0.00,WUHU21623XXSP,2013-03-10 08:36:00,
2013-03-10 10:41:00,63.9,47.5,29.82,West,270,0.0,8.1,55,0.00,,SCT,0.00,WUHU21623XXSP,2013-03-10 08:41:00,
2013-03-10 10:46:00,63.9,47.5,29.82,SE,135,0.0,8.1,55,0.00,,SCT,0.00,WUHU21623XXSP,2013-03-10 08:46:00,
2013-03-10 10:51:00,64.6,48.2,29.81,WNW,292,0.0,5.6,55,0.00,,SCT,0.00,WUHU21623XXSP,2013-03-10 08:51:00,
2013-03-10 10:56:00,64.6,48.2,29.80,SSW,202,0.0,5.4,55,0.00,,SCT,0.00,WUHU21623XXSP,2013-03-10 08:56:00,
2013-03-10 11:01:00,64.9,47.9,29.81,SSE,157,4.7,6.6,54,0.00,,SCT,0.00,WUHU21623XXSP,2013-03-10 09:01:00,
2013-03-10 11:06:00,64.9,47.4,29.81,South,180,3.2,6.9,53,0.00,,SCT,0.00,WUHU21623XXSP,2013-03-10 09:06:00,
2013-03-10 11:11:00,65.3,47.8,29.80,SW,225,5.6,8.9,53,0.00,,SCT,0.00,WUHU21623XXSP,2013-03-10 09:11:00,
2013-03-10 11:16:00,65.7,47.7,29.81,SE,135,3.4,8.9,52,0.00,,SCT,0.00,WUHU21623XXSP,2013-03-10 09:16:00,
2013-03-10 11:21:00,65.8,47.8,29.81,South,180,6.2,6.6,52,0.00,,SCT,0.00,WUHU21623XXSP,2013-03-10 09:21:00,
2013-03-10 11:26:00,65.3,47.3,29.81,WSW,247,4.0,6.4,52,0.00,,SCT,0.00,WUHU21623XXSP,2013-03-10 09:26:00,
2013-03-10 11:31:00,65.5,46.9,29.81,SW,225,2.4,6.9,51,0.00,,SCT,0.00,WUHU21623XXSP,2013-03-10 09:31:00,
2013-03-10 11:36:00,65.8,47.8,29.81,SSW,202,3.2,7.9,52,0.00,,SCT,0.00,WUHU21623XXSP,2013-03-10 09:36:00,
2013-03-10 11:41:00,66.6,48.0,29.80,SE,135,6.6,7.9,51,0.00,,SCT,0.00,WUHU21623XXSP,2013-03-10 09:41:00,
2013-03-10 11:46:00,67.1,46.2,29.80,South,180,4.9,7.9,47,0.00,,SCT,0.00,WUHU21623XXSP,2013-03-10 09:46:00,
2013-03-10 11:51:00,67.1,45.6,29.80,SW,225,0.0,8.6,46,0.00,,SCT,0.00,WUHU21623XXSP,2013-03-10 09:51:00,
2013-03-10 11:56:00,67.6,46.6,29.80,SSW,202,7.9,8.6,47,0.00,,SCT,0.00,WUHU21623XXSP,2013-03-10 09:56:00,
2013-03-10 12:01:00,67.5,44.8,29.80,South,180,4.9,8.4,44,0.00,,SCT,0.00,WUHU21623XXSP,2013-03-10 10:01:00,
2013-03-10 12:06:00,67.1,45.0,29.80,SW,225,10.3,10.3,45,0.00,,SCT,0.00,WUHU21623XXSP,2013-03-10 10:06:00,
2013-03-10 12:11:00,67.5,45.4,29.80,SSW,202,3.0,10.3,45,0.00,,SCT,0.00,WUHU21623XXSP,2013-03-10 10:11:00,
2013-03-10 12:16:00,68.2,46.0,29.80,WSW,247,3.0,10.3,45,0.00,,SCT,0.00,WUHU21623XXSP,2013-03-10 10:16:00,
2013-03-10 12:21:00,68.0,47.0,29.80,SSW,202,0.0,9.8,47,0.00,,SCT,0.00,WUHU21623XXSP,2013-03-10 10:21:00,
2013-03-10 12:26:00,68.2,46.6,29.80,SW,225,5.4,11.1,46,0.00,,FEW,0.00,WUHU21623XXSP,2013-03-10 10:26:00,
2013-03-10 12:31:00,67.6,45.5,29.80,South,180,1.0,11.1,45,0.00,,FEW,0.00,WUHU21623XXSP,2013-03-10 10:31:00,
2013-03-10 12:36:00,67.5,44.1,29.80,SW,225,4.4,10.8,43,0.00,,FEW,0.00,WUHU21623XXSP,2013-03-10 10:36:00,
2013-03-10 12:41:00,67.5,44.8,29.79,NNW,337,0.0,8.9,44,0.00,,FEW,0.00,WUHU21623XXSP,2013-03-10 10:41:00,
2013-03-10 12:46:00,67.5,45.4,29.79,South,180,4.0,9.6,45,0.00,,FEW,0.00,WUHU21623XXSP,2013-03-10 10:46:00,
2013-03-10 12:51:00,67.5,44.8,29.79,SSW,202,5.9,9.6,44,0.00,,FEW,0.00,WUHU21623XXSP,2013-03-10 10:51:00,
2013-03-10 12:56:00,67.8,44.4,29.79,SW,225,4.0,8.4,43,0.00,,FEW,0.00,WUHU21623XXSP,2013-03-10 10:56:00,
2013-03-10 13:01:00,67.6,42.9,29.79,West,270,4.4,10.6,41,0.00,,FEW,0.00,WUHU21623XXSP,2013-03-10 11:01:00,
2013-03-10 13:06:00,67.6,43.6,29.79,SW,225,1.8,12.1,42,0.00,,FEW,0.00,WUHU21623XXSP,2013-03-10 11:06:00,
2013-03-10 13:11:00,68.2,44.1,29.79,SSE,157,0.0,12.1,42,0.00,,FEW,0.00,WUHU21623XXSP,2013-03-10 11:11:00,
2013-03-10 13:16:00,67.8,43.1,29.78,SSW,202,0.0,11.3,41,0.00,,FEW,0.00,WUHU21623XXSP,2013-03-10 11:16:00,
2013-03-10 13:21:00,68.0,43.3,29.78,SE,135,6.2,8.1,41,0.00,,FEW,0.00,WUHU21623XXSP,2013-03-10 11:21:00,
2013-03-10 13:26:00,67.6,43.6,29.78,WSW,247,5.4,11.1,42,0.00,,FEW,0.00,WUHU21623XXSP,2013-03-10 11:26:00,
2013-03-10 13:31:00,67.1,43.8,29.78,NNW,337,2.2,11.1,43,0.00,,FEW,0.00,WUHU21623XXSP,2013-03-10 11:31:00,
2013-03-10 13:36:00,66.9,44.2,29.78,SSW,202,0.0,9.1,44,0.00,,FEW,0.00,WUHU21623XXSP,2013-03-10 11:36:00,
2013-03-10 13:41:00,66.9,44.2,29.78,SSE,157,5.4,11.8,44,0.00,,FEW,0.00,WUHU21623XXSP,2013-03-10 11:41:00,
2013-03-10 13:46:00,67.1,43.8,29.77,South,180,0.0,11.8,43,0.00,,FEW,0.00,WUHU21623XXSP,2013-03-10 11:46:00,
2013-03-10 13:51:00,67.1,43.1,29.77,WSW,247,4.7,10.8,42,0.00,,FEW,0.00,WUHU21623XXSP,2013-03-10 11:51:00,
2013-03-10 13:56:00,67.5,42.9,29.77,South,180,4.9,11.6,41,0.00,,FEW,0.00,WUHU21623XXSP,2013-03-10 11:56:00,
2013-03-10 14:01:00,67.1,43.1,29.77,SW,225,2.4,11.6,42,0.00,,FEW,0.00,WUHU21623XXSP,2013-03-10 12:01:00,
2013-03-10 14:06:00,66.6,43.3,29.77,SW,225,1.8,11.6,43,0.00,,FEW,0.00,WUHU21623XXSP,2013-03-10 12:06:00,
2013-03-10 14:11:00,66.0,43.4,29.77,South,180,3.7,11.6,44,0.00,,FEW,0.00,WUHU21623XXSP,2013-03-10 12:11:00,
2013-03-10 14:16:00,65.7,43.1,29.77,SW,225,0.0,10.8,44,0.00,,FEW,0.00,WUHU21623XXSP,2013-03-10 12:16:00,
2013-03-10 14:21:00,65.1,42.6,29.77,SSW,202,4.0,10.8,44,0.00,,FEW,0.00,WUHU21623XXSP,2013-03-10 12:21:00,
2013-03-10 14:26:00,64.9,43.6,29.77,North,0,0.0,9.8,46,0.00,,FEW,0.00,WUHU21623XXSP,2013-03-10 12:26:00,
2013-03-10 14:31:00,64.8,44.6,29.77,West,270,0.0,9.8,48,0.00,,FEW,0.00,WUHU21623XXSP,2013-03-10 12:31:00,
2013-03-10 14:36:00,64.6,45.0,29.77,SW,225,13.3,13.3,49,0.00,,FEW,0.00,WUHU21623XXSP,2013-03-10 12:36:00,
2013-03-10 14:41:00,64.2,45.2,29.77,WSW,247,11.3,16.9,50,0.00,,FEW,0.00,WUHU21623XXSP,2013-03-10 12:41:00,
2013-03-10 14:46:00,64.0,45.5,29.77,SW,225,4.9,16.9,51,0.00,,FEW,0.00,WUHU21623XXSP,2013-03-10 12:46:00,
2013-03-10 14:51:00,63.7,45.8,29.77,WSW,247,10.8,12.3,52,0.00,,FEW,0.00,WUHU21623XXSP,2013-03-10 12:51:00,
2013-03-10 14:56:00,63.1,45.8,29.77,SW,225,4.0,13.3,53,0.00,,FEW,0.00,WUHU21623XXSP,2013-03-10 12:56:00,
2013-03-10 15:01:00,63.3,46.5,29.77,South,180,10.1,13.3,54,0.00,,FEW,0.00,WUHU21623XXSP,2013-03-10 13:01:00,
2013-03-10 15:06:00,63.3,46.5,29.77,SSE,157,3.2,10.8,54,0.00,,FEW,0.00,WUHU21623XXSP,2013-03-10 13:06:00,
2013-03-10 15:11:00,64.0,46.6,29.76,SW,225,6.2,13.3,53,0.00,,FEW,0.00,WUHU21623XXSP,2013-03-10 13:11:00,
2013-03-10 15:16:00,64.0,46.6,29.76,South,180,7.4,13.3,53,0.00,,FEW,0.00,WUHU21623XXSP,2013-03-10 13:16:00,
2013-03-10 15:21:00,64.8,47.3,29.76,SW,225,4.9,13.8,53,0.00,,FEW,0.00,WUHU21623XXSP,2013-03-10 13:21:00,
2013-03-10 15:26:00,65.1,47.1,29.76,SSW,202,1.8,13.8,52,0.00,,FEW,0.00,WUHU21623XXSP,2013-03-10 13:26:00,
2013-03-10 15:31:00,65.1,47.1,29.76,North,0,0.0,9.6,52,0.00,,FEW,0.00,WUHU21623XXSP,2013-03-10 13:31:00,
2013-03-10 15:36:00,65.1,47.6,29.76,ENE,67,0.0,8.1,53,0.00,,FEW,0.00,WUHU21623XXSP,2013-03-10 13:36:00,
2013-03-10 15:41:00,64.6,47.2,29.75,WSW,247,0.0,8.1,53,0.00,,FEW,0.00,WUHU21623XXSP,2013-03-10 13:41:00,
2013-03-10 15:46:00,64.0,47.1,29.75,SE,135,0.0,8.1,54,0.00,,FEW,0.00,WUHU21623XXSP,2013-03-10 13:46:00,
2013-03-10 15:51:00,64.2,47.3,29.75,SW,225,0.0,8.1,54,0.00,,FEW,0.00,WUHU21623XXSP,2013-03-10 13:51:00,
2013-03-10 15:56:00,64.8,47.3,29.75,SW,225,1.8,8.1,53,0.00,,FEW,0.00,WUHU21623XXSP,2013-03-10 13:56:00,
2013-03-10 16:01:00,64.4,47.5,29.75,SW,225,3.4,7.6,54,0.00,,FEW,0.00,WUHU21623XXSP,2013-03-10 14:01:00,
2013-03-10 16:06:00,65.3,48.3,29.75,NNW,337,0.0,6.9,54,0.00,,FEW,0.00,WUHU21623XXSP,2013-03-10 14:06:00,
2013-03-10 16:11:00,65.7,48.2,29.75,WNW,292,0.0,7.2,53,0.00,,FEW,0.00,WUHU21623XXSP,2013-03-10 14:11:00,
2013-03-10 16:16:00,65.8,48.3,29.75,WSW,247,0.0,11.1,53,0.00,,FEW,0.00,WUHU21623XXSP,2013-03-10 14:16:00,
2013-03-10 16:21:00,65.7,48.2,29.75,WNW,292,0.0,11.6,53,0.00,,FEW,0.00,WUHU21623XXSP,2013-03-10 14:21:00,
2013-03-10 16:26:00,65.8,48.8,29.75,South,180,0.0,11.6,54,0.00,,FEW,0.00,WUHU21623XXSP,2013-03-10 14:26:00,
2013-03-10 16:31:00,65.8,48.8,29.75,NE,45,0.0,7.2,54,0.00,,FEW,0.00,WUHU21623XXSP,2013-03-10 14:31:00,
2013-03-10 16:36:00,65.7,48.7,29.75,SSW,202,3.7,9.1,54,0.00,,FEW,0.00,WUHU21623XXSP,2013-03-10 14:36:00,
2013-03-10 16:41:00,65.7,49.2,29.74,SW,225,5.2,9.1,55,0.00,,FEW,0.00,WUHU21623XXSP,2013-03-10 14:41:00,
2013-03-10 16:46:00,65.7,49.2,29.74,NNW,337,0.0,8.1,55,0.00,,FEW,0.00,WUHU21623XXSP,2013-03-10 14:46:00,
2013-03-10 16:51:00,65.3,48.8,29.75,South,180,2.4,8.4,55,0.00,,FEW,0.00,WUHU21623XXSP,2013-03-10 14:51:00,
2013-03-10 16:56:00,65.3,49.3,29.75,WSW,247,0.0,8.4,56,0.00,,FEW,0.00,WUHU21623XXSP,2013-03-10 14:56:00,
2013-03-10 17:01:00,65.3,48.8,29.75,West,270,0.0,6.6,55,0.00,,FEW,0.00,WUHU21623XXSP,2013-03-10 15:01:00,
2013-03-10 17:06:00,65.1,49.1,29.75,WSW,247,1.0,8.6,56,0.00,,FEW,0.00,WUHU21623XXSP,2013-03-10 15:06:00,
2013-03-10 17:11:00,65.3,48.8,29.75,SSE,157,0.0,8.6,55,0.00,,FEW,0.00,WUHU21623XXSP,2013-03-10 15:11:00,
2013-03-10 17:16:00,65.1,48.6,29.75,SSW,202,0.0,7.2,55,0.00,,FEW,0.00,WUHU21623XXSP,2013-03-10 15:16:00,
2013-03-10 17:21:00,64.8,48.8,29.75,NNE,22,0.0,7.2,56,0.00,,FEW,0.00,WUHU21623XXSP,2013-03-10 15:21:00,
2013-03-10 17:26:00,64.6,49.1,29.75,NW,315,0.0,5.6,57,0.00,,FEW,0.00,WUHU21623XXSP,2013-03-10 15:26:00,
2013-03-10 17:31:00,64.4,49.0,29.75,SSW,202,0.0,4.4,57,0.00,,SKC,0.00,WUHU21623XXSP,2013-03-10 15:31:00,
2013-03-10 17:36:00,64.6,49.6,29.75,North,0,0.0,3.4,58,0.00,,SKC,0.00,WUHU21623XXSP,2013-03-10 15:36:00,
2013-03-10 17:41:00,64.0,49.1,29.75,SW,225,0.0,1.8,58,0.00,,SKC,0.00,WUHU21623XXSP,2013-03-10 15:41:00,
2013-03-10 17:46:00,63.9,49.0,29.75,WSW,247,0.0,0.0,58,0.00,,SKC,0.00,WUHU21623XXSP,2013-03-10 15:46:00,
2013-03-10 17:51:00,63.9,49.4,29.75,NE,45,0.0,0.0,59,0.00,,SKC,0.00,WUHU21623XXSP,2013-03-10 15:51:00,
2013-03-10 17:56:00,63.7,48.8,29.75,NNW,337,0.0,0.0,58,0.00,,SKC,0.00,WUHU21623XXSP,2013-03-10 15:56:00,
2013-03-10 18:01:00,63.5,49.1,29.75,West,270,0.0,0.0,59,0.00,,SKC,0.00,WUHU21623XXSP,2013-03-10 16:01:00,
2013-03-10 18:06:00,63.5,49.1,29.75,NW,315,0.0,0.0,59,0.00,,SKC,0.00,WUHU21623XXSP,2013-03-10 16:06:00,
2013-03-10 18:11:00,63.5,49.1,29.75,NW,315,0.0,1.2,59,0.00,,SKC,0.00,WUHU21623XXSP,2013-03-10 16:11:00,
2013-03-10 18:17:00,63.5,49.1,29.75,North,0,0.0,2.0,59,0.00,,SKC,0.00,WUHU21623XXSP,2013-03-10 16:17:00,
2013-03-10 18:22:00,63.0,49.5,29.75,NNE,22,0.0,2.0,61,0.00,,SKC,0.00,WUHU21623XXSP,2013-03-10 16:22:00,
2013-03-10 18:27:00,62.8,49.3,29.74,North,0,0.0,0.0,61,0.00,,SKC,0.00,WUHU21623XXSP,2013-03-10 16:27:00,
2013-03-10 18:32:00,62.8,49.7,29.75,NNE,22,0.0,0.0,62,0.00,,SKC,0.00,WUHU21623XXSP,2013-03-10 16:32:00,
2013-03-10 18:36:00,63.0,49.5,29.74,North,0,0.0,0.0,61,0.00,,SKC,0.00,WUHU21623XXSP,2013-03-10 16:36:00,
2013-03-10 18:42:00,62.8,49.3,29.74,NNE,22,0.0,2.2,61,0.00,,SKC,0.00,WUHU21623XXSP,2013-03-10 16:42:00,
2013-03-10 18:46:00,62.4,49.4,29.74,NE,45,0.0,2.2,62,0.00,,SKC,0.00,WUHU21623XXSP,2013-03-10 16:46:00,
2013-03-10 18:51:00,62.4,49.4,29.74,East,90,0.0,0.0,62,0.00,,SKC,0.00,WUHU21623XXSP,2013-03-10 16:51:00,
2013-03-10 18:57:00,62.4,48.9,29.74,East,90,0.0,0.0,61,0.00,,SKC,0.00,WUHU21623XXSP,2013-03-10 16:57:00,
2013-03-10 19:01:00,62.4,48.9,29.74,NE,45,0.0,2.0,61,0.00,,SKC,0.00,WUHU21623XXSP,2013-03-10 17:01:00,
2013-03-10 19:06:00,62.8,49.3,29.74,North,0,0.0,2.0,61,0.00,,SKC,0.00,WUHU21623XXSP,2013-03-10 17:06:00,
2013-03-10 19:11:00,62.8,49.3,29.74,NNE,22,0.0,0.0,61,0.00,,SKC,0.00,WUHU21623XXSP,2013-03-10 17:11:00,
2013-03-10 19:16:00,62.6,49.1,29.74,ENE,67,0.0,0.0,61,0.00,,SKC,0.00,WUHU21623XXSP,2013-03-10 17:16:00,
2013-03-10 19:21:00,62.2,48.7,29.74,NE,45,2.0,2.0,61,0.00,,SKC,0.00,WUHU21623XXSP,2013-03-10 17:21:00,
2013-03-10 19:26:00,62.1,48.6,29.74,NNE,22,0.8,2.4,61,0.00,,SKC,0.00,WUHU21623XXSP,2013-03-10 17:26:00,
2013-03-10 19:31:00,61.9,48.4,29.74,NE,45,0.0,2.4,61,0.00,,SKC,0.00,WUHU21623XXSP,2013-03-10 17:31:00,
2013-03-10 19:36:00,61.7,48.3,29.74,North,0,0.0,2.2,61,0.00,,SKC,0.00,WUHU21623XXSP,2013-03-10 17:36:00,
2013-03-10 19:41:00,61.5,48.1,29.74,North,0,0.0,0.0,61,0.00,,SKC,0.00,WUHU21623XXSP,2013-03-10 17:41:00,
2013-03-10 19:46:00,61.5,48.5,29.73,NNW,337,0.0,0.0,62,0.00,,SKC,0.00,WUHU21623XXSP,2013-03-10 17:46:00,
2013-03-10 19:51:00,61.2,48.2,29.73,NNW,337,0.0,0.0,62,0.00,,SKC,0.00,WUHU21623XXSP,2013-03-10 17:51:00,
2013-03-10 19:56:00,61.0,48.0,29.74,NNW,337,0.0,0.0,62,0.00,,SKC,0.00,WUHU21623XXSP,2013-03-10 17:56:00,
2013-03-10 20:01:00,61.0,48.5,29.74,NNW,337,0.0,0.0,63,0.00,,SKC,0.00,WUHU21623XXSP,2013-03-10 18:01:00,
2013-03-10 20:06:00,60.4,47.9,29.75,NNW,337,0.0,0.0,63,0.00,,SKC,0.00,WUHU21623XXSP,2013-03-10 18:06:00,
2013-03-10 20:11:00,60.3,48.2,29.74,NNW,337,0.0,0.0,64,0.00,,SKC,0.00,WUHU21623XXSP,2013-03-10 18:11:00,
2013-03-10 20:16:00,59.9,47.8,29.74,North,0,0.0,0.0,64,0.00,,SKC,0.00,WUHU21623XXSP,2013-03-10 18:16:00,
2013-03-10 20:21:00,59.9,47.8,29.75,NE,45,0.0,0.0,64,0.00,,SKC,0.00,WUHU21623XXSP,2013-03-10 18:21:00,
2013-03-10 20:26:00,59.7,48.5,29.75,NNE,22,0.0,0.0,66,0.00,,SKC,0.00,WUHU21623XXSP,2013-03-10 18:26:00,
2013-03-10 20:31:00,59.5,48.3,29.75,NNE,22,0.0,0.0,66,0.00,,SKC,0.00,WUHU21623XXSP,2013-03-10 18:31:00,
2013-03-10 20:36:00,59.5,48.3,29.75,NNE,22,0.0,2.8,66,0.00,,SKC,0.00,WUHU21623XXSP,2013-03-10 18:36:00,
2013-03-10 20:41:00,59.5,48.7,29.75,North,0,0.0,2.8,67,0.00,,SKC,0.00,WUHU21623XXSP,2013-03-10 18:41:00,
2013-03-10 20:46:00,59.4,48.6,29.74,North,0,0.0,0.0,67,0.00,,SKC,0.00,WUHU21623XXSP,2013-03-10 18:46:00,
2013-03-10 20:51:00,59.4,48.6,29.74,NNE,22,0.0,0.0,67,0.00,,SKC,0.00,WUHU21623XXSP,2013-03-10 18:51:00,
2013-03-10 20:56:00,59.4,48.6,29.74,North,0,1.4,1.4,67,0.00,,SKC,0.00,WUHU21623XXSP,2013-03-10 18:56:00,
2013-03-10 21:02:00,59.4,49.0,29.75,NNW,337,0.0,2.4,68,0.00,,SKC,0.00,WUHU21623XXSP,2013-03-10 19:02:00,
2013-03-10 21:07:00,59.4,49.0,29.75,NNE,22,0.0,2.4,68,0.00,,SKC,0.00,WUHU21623XXSP,2013-03-10 19:07:00,
2013-03-10 21:12:00,59.2,48.8,29.74,North,0,0.8,3.2,68,0.00,,SKC,0.00,WUHU21623XXSP,2013-03-10 19:12:00,
2013-03-10 21:17:00,59.2,48.8,29.75,NE,45,0.0,3.2,68,0.00,,SKC,0.00,WUHU21623XXSP,2013-03-10 19:17:00,
2013-03-10 21:22:00,59.2,48.8,29.74,NNE,22,0.0,2.8,68,0.00,,SKC,0.00,WUHU21623XXSP,2013-03-10 19:22:00,
2013-03-10 21:27:00,59.2,49.2,29.75,North,0,0.0,2.8,69,0.00,,SKC,0.00,WUHU21623XXSP,2013-03-10 19:27:00,
2013-03-10 21:32:00,59.2,49.2,29.75,North,0,0.0,1.4,69,0.00,,SKC,0.00,WUHU21623XXSP,2013-03-10 19:32:00,
2013-03-10 21:37:00,58.8,48.8,29.74,North,0,0.0,0.0,69,0.00,,SKC,0.00,WUHU21623XXSP,2013-03-10 19:37:00,
2013-03-10 21:42:00,58.8,48.8,29.74,North,0,0.0,0.0,69,0.00,,SKC,0.00,WUHU21623XXSP,2013-03-10 19:42:00,
2013-03-10 21:47:00,58.6,48.6,29.74,NNE,22,0.0,0.0,69,0.00,,SKC,0.00,WUHU21623XXSP,2013-03-10 19:47:00,
2013-03-10 22:27:00,57.9,49.0,29.74,North,0,0.0,0.0,72,0.00,,BKN,0.00,WUHU21623XXSP,2013-03-10 20:27:00,
2013-03-10 23:27:00,56.8,49.1,29.73,ESE,113,0.0,0.0,75,0.00,,BKN,0.00,WUHU21623XXSP,2013-03-10 21:27:00,